createdAt,value
2022-10-23T00:01:14.918Z,100438.19
2022-10-23T00:03:42.369Z,100434.38
2022-10-23T00:06:09.912Z,100446.16
2022-10-23T00:08:37.383Z,100452.25
2022-10-23T00:11:08.680Z,100447.91
2022-10-23T00:13:36.108Z,100453.22
2022-10-23T00:16:03.546Z,100457.66
2022-10-23T00:18:30.988Z,100442.59
2022-10-23T00:20:58.432Z,100448.00
2022-10-23T00:23:25.909Z,100448.09
2022-10-23T00:25:53.357Z,100442.75
2022-10-23T00:28:22.106Z,100444.47
2022-10-23T00:30:49.596Z,100446.25
2022-10-23T00:33:17.057Z,100444.63
2022-10-23T00:35:44.733Z,100440.19
2022-10-23T00:38:12.962Z,100368.19
2022-10-23T00:40:42.099Z,100402.59
2022-10-23T00:43:17.036Z,100433.16
2022-10-23T00:45:45.805Z,100434.97
2022-10-23T00:48:13.286Z,100432.31
2022-10-23T00:50:40.755Z,100429.66
2022-10-23T00:53:08.168Z,100390.25
2022-10-23T00:55:35.605Z,100368.47
2022-10-23T00:58:03.090Z,100430.66
2022-10-23T01:00:31.878Z,100434.19
2022-10-23T01:03:00.651Z,100432.50
2022-10-23T01:05:35.557Z,100410.38
2022-10-23T01:08:03.919Z,100370.41
2022-10-23T01:10:33.127Z,100377.69
2022-10-23T01:13:03.547Z,100353.44
2022-10-23T01:15:32.828Z,100415.78
2022-10-23T01:18:03.500Z,100415.78
2022-10-23T01:20:35.646Z,100399.66
2022-10-23T01:23:24.219Z,100415.84
2022-10-23T01:26:00.388Z,100422.13
2022-10-23T01:28:30.433Z,100338.03
2022-10-23T01:30:58.263Z,100407.97
2022-10-23T01:33:26.756Z,100417.72
2022-10-23T01:35:55.666Z,100332.34
2022-10-23T01:38:25.551Z,100418.69
2022-10-23T01:40:55.768Z,100394.22
2022-10-23T01:43:24.301Z,100413.47
2022-10-23T01:45:54.367Z,100392.41
2022-10-23T01:48:24.612Z,100381.13
2022-10-23T01:50:51.881Z,100418.94
2022-10-23T01:53:19.591Z,100414.78
2022-10-23T01:55:47.137Z,100342.69
2022-10-23T01:58:14.585Z,100418.09
2022-10-23T02:00:42.094Z,100353.13
2022-10-23T02:03:10.854Z,100325.41
2022-10-23T02:05:39.212Z,100409.38
2022-10-23T02:08:06.700Z,100408.31
2022-10-23T02:10:41.490Z,100410.13
2022-10-23T02:13:11.553Z,100310.06
2022-10-23T02:15:40.709Z,100351.06
2022-10-23T02:18:09.688Z,100403.19
2022-10-23T02:20:41.015Z,100395.22
2022-10-23T02:23:15.185Z,100393.53
2022-10-23T02:25:47.165Z,100396.19
2022-10-23T02:28:16.459Z,100394.44
2022-10-23T02:30:43.969Z,100394.44
2022-10-23T02:33:11.447Z,100330.94
2022-10-23T02:35:40.201Z,100397.09
2022-10-23T02:38:30.155Z,100391.88
2022-10-23T02:40:58.384Z,100395.50
2022-10-23T02:43:27.996Z,100390.16
2022-10-23T02:45:58.491Z,100376.97
2022-10-23T02:48:28.346Z,100369.00
2022-10-23T02:50:59.610Z,100367.41
2022-10-23T02:53:28.792Z,100338.56
2022-10-23T02:56:00.322Z,100366.53
2022-10-23T02:58:28.950Z,100349.25
2022-10-23T03:00:58.519Z,100290.34
2022-10-23T03:03:28.346Z,100334.94
2022-10-23T03:05:57.101Z,100256.28
2022-10-23T03:08:25.003Z,100357.78
2022-10-23T03:10:52.481Z,100353.34
2022-10-23T03:13:19.932Z,100355.13
2022-10-23T03:15:47.417Z,100344.59
2022-10-23T03:18:14.897Z,100348.13
2022-10-23T03:20:42.360Z,100343.75
2022-10-23T03:23:12.706Z,100339.28
2022-10-23T03:25:40.148Z,100340.31
2022-10-23T03:28:07.595Z,100346.41
2022-10-23T03:30:35.078Z,100340.31
2022-10-23T03:33:02.510Z,100336.81
2022-10-23T03:35:29.932Z,100337.75
2022-10-23T03:37:57.408Z,100345.72
2022-10-23T03:40:26.174Z,100342.19
2022-10-23T03:42:53.629Z,100348.47
2022-10-23T03:45:21.063Z,100341.47
2022-10-23T03:47:48.646Z,100338.81
2022-10-23T03:50:16.238Z,100337.06
2022-10-23T03:52:44.044Z,100342.38
2022-10-23T03:55:12.000Z,100273.06
2022-10-23T03:57:40.802Z,100341.47
2022-10-23T04:00:09.058Z,100345.91
2022-10-23T04:02:36.550Z,100338.97
2022-10-23T04:05:04.146Z,100342.47
2022-10-23T04:07:31.604Z,100345.13
2022-10-23T04:09:59.024Z,100346.16
2022-10-23T04:12:26.489Z,100344.38
2022-10-23T04:14:55.230Z,100340.00
2022-10-23T04:17:22.734Z,100335.63
2022-10-23T04:19:50.215Z,100327.94
2022-10-23T04:22:17.664Z,100335.72
2022-10-23T04:24:46.652Z,100328.72
2022-10-23T04:27:14.078Z,100321.66
2022-10-23T04:29:41.514Z,100319.88
2022-10-23T04:32:10.273Z,100323.56
2022-10-23T04:34:37.693Z,100324.31
2022-10-23T04:37:05.104Z,100326.22
2022-10-23T04:39:32.539Z,100319.19
2022-10-23T04:41:59.956Z,100317.41
2022-10-23T04:44:27.379Z,100308.56
2022-10-23T04:46:54.818Z,100310.47
2022-10-23T04:49:23.725Z,100305.16
2022-10-23T04:51:51.188Z,100299.06
2022-10-23T04:54:18.616Z,100311.41
2022-10-23T04:56:46.037Z,100305.25
2022-10-23T04:59:13.518Z,100308.75
2022-10-23T05:01:40.957Z,100302.59
2022-10-23T05:04:08.405Z,100299.06
2022-10-23T05:06:37.171Z,100300.97
2022-10-23T05:09:04.933Z,100302.69
2022-10-23T05:11:32.378Z,100297.38
2022-10-23T05:13:59.815Z,100303.69
2022-10-23T05:16:32.561Z,100299.34
2022-10-23T05:19:00.117Z,100308.19
2022-10-23T05:21:28.234Z,100234.59
2022-10-23T05:23:57.317Z,100304.75
2022-10-23T05:26:24.973Z,100244.06
2022-10-23T05:28:52.402Z,100305.59
2022-10-23T05:31:19.830Z,100296.00
2022-10-23T05:33:47.274Z,100301.22
2022-10-23T05:36:14.701Z,100296.88
2022-10-23T05:38:42.178Z,100301.31
2022-10-23T05:41:10.944Z,100297.81
2022-10-23T05:43:38.358Z,100292.50
2022-10-23T05:46:06.520Z,100284.63
2022-10-23T05:48:35.042Z,100278.47
2022-10-23T05:51:06.670Z,100283.69
2022-10-23T05:53:36.118Z,100276.75
2022-10-23T05:56:06.812Z,100278.56
2022-10-23T05:58:35.753Z,100279.50
2022-10-23T06:01:06.254Z,100268.88
2022-10-23T06:03:34.020Z,100223.09
2022-10-23T06:06:01.525Z,100276.91
2022-10-23T06:08:29.121Z,100269.91
2022-10-23T06:10:56.558Z,100268.06
2022-10-23T06:13:23.989Z,100272.56
2022-10-23T06:15:52.741Z,100264.69
2022-10-23T06:18:20.151Z,100277.94
2022-10-23T06:20:47.565Z,100271.84
2022-10-23T06:23:14.982Z,100270.16
2022-10-23T06:25:42.425Z,100273.66
2022-10-23T06:28:09.858Z,100267.78
2022-10-23T06:30:39.870Z,100276.31
2022-10-23T06:33:08.663Z,100275.47
2022-10-23T06:35:36.096Z,100273.75
2022-10-23T06:38:03.529Z,100273.75
2022-10-23T06:40:31.000Z,100264.06
2022-10-23T06:42:58.441Z,100257.97
2022-10-23T06:45:25.921Z,100259.72
2022-10-23T06:47:53.369Z,100260.66
2022-10-23T06:50:22.139Z,100252.84
2022-10-23T06:52:49.631Z,100241.41
2022-10-23T06:55:17.072Z,100216.09
2022-10-23T06:57:44.838Z,100263.56
2022-10-23T07:00:13.834Z,100256.56
2022-10-23T07:02:41.564Z,100246.81
2022-10-23T07:05:12.790Z,100231.72
2022-10-23T07:07:42.682Z,100250.28
2022-10-23T07:10:10.482Z,100242.25
2022-10-23T07:12:38.005Z,100238.75
2022-10-23T07:15:06.505Z,100232.66
2022-10-23T07:17:33.961Z,100237.03
2022-10-23T07:20:01.383Z,100240.81
2022-10-23T07:22:28.833Z,100245.06
2022-10-23T07:24:57.603Z,100248.41
2022-10-23T07:27:25.481Z,100251.94
2022-10-23T07:29:53.001Z,100253.63
2022-10-23T07:32:20.512Z,100250.88
2022-10-23T07:34:47.934Z,100245.59
2022-10-23T07:37:15.383Z,100245.66
2022-10-23T07:39:42.882Z,100244.16
2022-10-23T07:42:11.906Z,100241.75
2022-10-23T07:44:39.344Z,100244.16
2022-10-23T07:47:06.790Z,100237.19
2022-10-23T07:49:34.329Z,100238.84
2022-10-23T07:54:34.187Z,100229.50
2022-10-23T07:57:01.646Z,100234.53
2022-10-23T07:59:33.384Z,100141.19
2022-10-23T08:02:03.213Z,100225.31
2022-10-23T08:04:30.715Z,100230.88
2022-10-23T08:06:58.335Z,100236.00
2022-10-23T08:09:25.843Z,100188.03
2022-10-23T08:11:53.288Z,100220.78
2022-10-23T08:14:20.714Z,100235.84
2022-10-23T08:16:49.620Z,100246.38
2022-10-23T08:19:17.092Z,100225.97
2022-10-23T08:21:44.525Z,100232.03
2022-10-23T08:24:13.626Z,100224.00
2022-10-23T08:26:41.091Z,100220.47
2022-10-23T08:29:08.614Z,100225.69
2022-10-23T08:31:36.069Z,100212.41
2022-10-23T08:34:04.845Z,100215.00
2022-10-23T08:36:33.342Z,100222.06
2022-10-23T08:39:00.799Z,100220.16
2022-10-23T08:41:29.890Z,100212.19
2022-10-23T08:44:01.293Z,100204.91
2022-10-23T08:46:30.037Z,100200.44
2022-10-23T08:48:59.562Z,100164.72
2022-10-23T08:51:32.775Z,100204.72
2022-10-23T08:54:03.934Z,100198.56
2022-10-23T08:56:33.688Z,100194.94
2022-10-23T08:59:05.227Z,100124.00
2022-10-23T09:01:37.323Z,100131.59
2022-10-23T09:04:04.865Z,100198.28
2022-10-23T09:06:37.837Z,100197.22
2022-10-23T09:09:15.336Z,100158.59
2022-10-23T09:11:46.750Z,100185.88
2022-10-23T09:14:31.302Z,100201.63
2022-10-23T09:17:05.748Z,100197.31
2022-10-23T09:19:33.216Z,100198.09
2022-10-23T09:22:01.973Z,100196.03
2022-10-23T09:24:31.578Z,100191.00
2022-10-23T09:27:00.353Z,100180.38
2022-10-23T09:29:28.642Z,100184.63
2022-10-23T09:31:57.062Z,100122.25
2022-10-23T09:34:25.806Z,100171.38
2022-10-23T09:39:27.182Z,100176.41
2022-10-23T09:41:56.921Z,100178.88
2022-10-23T09:44:25.059Z,100137.84
2022-10-23T09:46:54.016Z,100164.72
2022-10-23T09:49:22.798Z,100166.47
2022-10-23T09:51:54.299Z,100123.66
2022-10-23T09:54:23.920Z,100164.81
2022-10-23T09:56:52.690Z,100092.19
2022-10-23T09:59:22.745Z,100155.84
2022-10-23T10:01:51.190Z,100089.88
2022-10-23T10:04:18.835Z,100148.88
2022-10-23T10:06:46.355Z,100146.53
2022-10-23T10:09:14.675Z,100150.78
2022-10-23T10:11:44.294Z,100089.16
2022-10-23T10:14:36.938Z,100149.69
2022-10-23T10:17:06.597Z,100141.53
2022-10-23T10:19:45.116Z,100140.56
2022-10-23T10:22:16.975Z,100141.34
2022-10-23T10:24:47.868Z,100130.63
2022-10-23T10:27:21.836Z,100142.66
2022-10-23T10:29:58.407Z,100139.91
2022-10-23T10:32:32.698Z,100137.34
2022-10-23T10:35:06.042Z,100143.25
2022-10-23T10:37:37.864Z,100130.69
2022-10-23T10:40:09.398Z,100128.72
2022-10-23T10:42:43.313Z,100122.34
2022-10-23T10:45:29.829Z,100128.41
2022-10-23T10:48:20.366Z,100123.09
2022-10-23T10:50:49.402Z,100114.16
2022-10-23T10:53:21.573Z,100111.34
2022-10-23T10:55:50.360Z,100120.25
2022-10-23T10:58:19.665Z,100087.16
2022-10-23T11:00:50.032Z,100106.38
2022-10-23T11:03:26.974Z,100093.09
2022-10-23T11:05:54.591Z,100093.97
2022-10-23T11:08:27.843Z,100089.28
2022-10-23T11:10:57.304Z,100046.34
2022-10-23T11:13:27.214Z,100074.88
2022-10-23T11:15:58.896Z,100068.88
2022-10-23T11:18:27.647Z,100057.16
2022-10-23T11:21:01.491Z,100058.16
2022-10-23T11:23:58.134Z,100007.53
2022-10-23T11:26:32.166Z,100036.88
2022-10-23T11:29:10.446Z,100021.16
2022-10-23T11:31:40.776Z,100027.84
2022-10-23T11:34:32.404Z,100030.22
2022-10-23T11:37:01.291Z,100030.22
2022-10-23T11:39:29.896Z,100023.00
2022-10-23T11:41:59.021Z,99985.50
2022-10-23T11:44:29.030Z,100026.41
2022-10-23T11:47:04.753Z,99948.84
2022-10-23T11:49:32.197Z,100012.47
2022-10-23T11:52:03.090Z,100014.06
2022-10-23T11:54:30.610Z,100016.72
2022-10-23T11:57:11.055Z,100008.75
2022-10-23T11:59:43.857Z,100007.06
2022-10-23T12:02:22.711Z,99996.22
2022-10-23T12:04:50.986Z,99985.00
2022-10-23T12:07:22.159Z,99991.09
2022-10-23T12:09:53.533Z,99952.94
2022-10-23T12:12:31.969Z,99989.31
2022-10-23T12:15:21.097Z,99979.50
2022-10-23T12:17:50.129Z,99978.69
2022-10-23T12:20:25.155Z,99981.13
2022-10-23T12:23:02.870Z,99915.28
2022-10-23T12:25:34.319Z,99976.75
2022-10-23T12:28:04.845Z,99901.47
2022-10-23T12:30:35.013Z,99965.19
2022-10-23T12:33:09.394Z,99956.53
2022-10-23T12:35:55.122Z,99917.66
2022-10-23T12:38:23.118Z,99945.91
2022-10-23T12:40:52.348Z,99862.03
2022-10-23T12:43:25.807Z,99935.38
2022-10-23T12:45:53.245Z,99928.16
2022-10-23T12:48:22.580Z,99928.16
2022-10-23T12:50:51.268Z,99933.47
2022-10-23T12:53:19.073Z,99866.44
2022-10-23T12:55:50.829Z,99908.59
2022-10-23T12:58:22.003Z,99906.03
2022-10-23T13:00:53.457Z,99905.94
2022-10-23T13:03:23.206Z,99878.78
2022-10-23T13:05:51.378Z,99695.56
2022-10-23T13:08:18.923Z,99898.16
2022-10-23T13:10:46.813Z,99865.91
2022-10-23T13:13:14.306Z,99902.63
2022-10-23T13:15:42.484Z,99892.59
2022-10-23T13:18:10.622Z,99899.03
2022-10-23T13:20:41.967Z,99831.84
2022-10-23T13:23:11.267Z,99892.84
2022-10-23T13:25:39.254Z,99888.41
2022-10-23T13:28:14.443Z,99878.59
2022-10-23T13:30:42.977Z,99841.16
2022-10-23T13:33:22.770Z,99883.91
2022-10-23T13:35:57.917Z,99891.88
2022-10-23T13:38:32.470Z,99867.00
2022-10-23T13:41:00.722Z,99882.22
2022-10-23T13:43:28.826Z,99874.13
2022-10-23T13:45:56.357Z,99867.84
2022-10-23T13:48:23.829Z,99863.50
2022-10-23T13:50:51.266Z,99858.19
2022-10-23T13:53:20.094Z,99847.56
2022-10-23T13:55:49.662Z,99848.53
2022-10-23T13:58:18.210Z,99840.56
2022-10-23T14:00:45.703Z,99839.59
2022-10-23T14:03:13.150Z,99833.50
2022-10-23T14:05:40.614Z,99814.91
2022-10-23T14:08:08.051Z,99809.47
2022-10-23T14:10:36.842Z,99803.34
2022-10-23T14:13:04.644Z,99800.69
2022-10-23T14:15:32.103Z,99798.03
2022-10-23T14:18:00.809Z,99788.22
2022-10-23T14:20:29.952Z,99794.41
2022-10-23T14:22:57.424Z,99794.41
2022-10-23T14:25:24.924Z,99736.47
2022-10-23T14:30:26.046Z,99786.31
2022-10-23T14:32:53.520Z,99738.91
2022-10-23T14:35:20.954Z,99784.41
2022-10-23T14:37:48.410Z,99790.56
2022-10-23T14:40:15.865Z,99792.28
2022-10-23T14:42:43.425Z,99786.00
2022-10-23T14:45:12.489Z,99769.06
2022-10-23T14:47:39.919Z,99771.63
2022-10-23T14:50:08.621Z,99765.31
2022-10-23T14:52:36.078Z,99749.25
2022-10-23T14:55:03.590Z,99737.63
2022-10-23T14:57:31.038Z,99734.00
2022-10-23T14:59:58.492Z,99735.84
2022-10-23T15:02:27.395Z,99737.53
2022-10-23T15:04:54.833Z,99728.59
2022-10-23T15:07:22.307Z,99726.91
2022-10-23T15:09:51.740Z,99709.47
2022-10-23T15:12:19.234Z,99704.88
2022-10-23T15:14:46.678Z,99701.38
2022-10-23T15:17:15.642Z,99707.53
2022-10-23T15:19:44.705Z,99713.81
2022-10-23T15:22:12.160Z,99714.78
2022-10-23T15:24:39.589Z,99712.13
2022-10-23T15:27:07.080Z,99700.59
2022-10-23T15:29:34.542Z,99695.28
2022-10-23T15:32:01.995Z,99701.56
2022-10-23T15:34:29.992Z,99687.31
2022-10-23T15:36:59.102Z,99675.81
2022-10-23T15:39:27.778Z,99666.25
2022-10-23T15:41:56.150Z,99660.84
2022-10-23T15:44:24.740Z,99653.84
2022-10-23T15:46:52.471Z,99653.94
2022-10-23T15:49:20.163Z,99660.09
2022-10-23T15:51:47.664Z,99654.88
2022-10-23T15:54:18.799Z,99659.38
2022-10-23T15:56:46.581Z,99621.13
2022-10-23T15:59:14.446Z,99657.66
2022-10-23T16:01:41.996Z,99645.31
2022-10-23T16:04:09.494Z,99637.34
2022-10-23T16:06:36.958Z,99645.31
2022-10-23T16:09:04.454Z,99663.06
2022-10-23T16:11:35.171Z,99656.81
2022-10-23T16:14:03.066Z,99592.47
2022-10-23T16:16:30.969Z,99622.41
2022-10-23T16:19:00.411Z,99648.09
2022-10-23T16:21:28.863Z,99636.59
2022-10-23T16:23:57.649Z,99630.47
2022-10-23T16:26:25.556Z,99626.81
2022-10-23T16:28:54.984Z,99612.78
2022-10-23T16:31:23.186Z,99597.94
2022-10-23T16:33:51.009Z,99596.69
2022-10-23T16:36:18.551Z,99615.44
2022-10-23T16:38:46.018Z,99609.53
2022-10-23T16:41:13.465Z,99612.91
2022-10-23T16:43:40.976Z,99604.00
2022-10-23T16:46:12.547Z,99605.16
2022-10-23T16:48:40.138Z,99614.72
2022-10-23T16:51:08.318Z,99559.41
2022-10-23T16:53:35.772Z,99566.72
2022-10-23T16:56:04.345Z,99598.78
2022-10-23T16:58:31.809Z,99602.38
2022-10-23T17:01:00.368Z,99570.97
2022-10-23T17:03:29.300Z,99613.00
2022-10-23T17:06:01.602Z,99607.69
2022-10-23T17:08:29.701Z,99631.72
2022-10-23T17:11:07.473Z,99627.28
2022-10-23T17:13:35.142Z,99625.47
2022-10-23T17:16:07.163Z,99623.63
2022-10-23T17:18:39.906Z,99632.38
2022-10-23T17:21:11.234Z,99624.72
2022-10-23T17:23:38.718Z,99632.59
2022-10-23T17:26:07.659Z,99638.34
2022-10-23T17:28:39.685Z,99667.03
2022-10-23T17:31:12.729Z,99614.03
2022-10-23T17:33:41.644Z,99644.09
2022-10-23T17:36:09.637Z,99690.09
2022-10-23T17:38:37.408Z,99685.97
2022-10-23T17:41:05.088Z,99688.41
2022-10-23T17:43:33.550Z,99705.22
2022-10-23T17:46:01.066Z,99711.66
2022-10-23T17:48:28.541Z,99733.59
2022-10-23T17:51:04.355Z,99672.25
2022-10-23T17:53:31.818Z,99725.19
2022-10-23T17:56:01.985Z,99716.78
2022-10-23T17:58:29.241Z,99718.72
2022-10-23T18:00:56.902Z,99709.78
2022-10-23T18:03:24.463Z,99724.84
2022-10-23T18:05:51.934Z,99734.66
2022-10-23T18:08:20.705Z,99740.69
2022-10-23T18:10:48.133Z,99731.03
2022-10-23T18:13:15.602Z,99750.50
2022-10-23T18:15:43.060Z,99749.63
2022-10-23T18:18:10.512Z,99757.59
2022-10-23T18:20:40.970Z,99765.59
2022-10-23T18:23:08.605Z,99719.31
2022-10-23T18:25:42.575Z,99813.44
2022-10-23T18:28:10.052Z,99794.81
2022-10-23T18:33:05.906Z,99785.03
2022-10-23T18:35:34.694Z,99727.41
2022-10-23T18:38:03.445Z,99789.50
2022-10-23T18:40:31.130Z,99789.50
2022-10-23T18:42:59.969Z,99796.50
2022-10-23T18:45:27.399Z,99808.09
2022-10-23T18:47:54.845Z,99817.06
2022-10-23T18:50:22.279Z,99817.88
2022-10-23T18:52:49.712Z,99818.75
2022-10-23T18:55:17.190Z,99816.09
2022-10-23T18:57:44.840Z,99804.59
2022-10-23T19:00:15.074Z,99801.09
2022-10-23T19:02:42.385Z,99806.53
2022-10-23T19:05:10.029Z,99787.06
2022-10-23T19:07:37.473Z,99799.38
2022-10-23T19:10:06.594Z,99794.06
2022-10-23T19:12:34.061Z,99794.94
2022-10-23T19:15:01.496Z,99797.69
2022-10-23T19:17:30.974Z,99795.91
2022-10-23T19:20:00.781Z,99796.72
2022-10-23T19:22:28.600Z,99771.00
2022-10-23T19:24:57.997Z,99714.44
2022-10-23T19:27:25.590Z,99765.91
2022-10-23T19:29:53.139Z,99675.34
2022-10-23T19:32:22.260Z,99733.25
2022-10-23T19:34:51.079Z,99759.63
2022-10-23T19:37:18.525Z,99774.63
2022-10-23T19:39:45.962Z,99765.78
2022-10-23T19:42:13.470Z,99755.59
2022-10-23T19:44:40.897Z,99729.44
2022-10-23T19:47:08.438Z,99697.66
2022-10-23T19:49:35.894Z,99676.41
2022-10-23T19:52:05.016Z,99629.88
2022-10-23T19:54:32.442Z,99656.84
2022-10-23T19:57:02.263Z,99662.16
2022-10-23T19:59:29.988Z,99674.47
2022-10-23T20:01:57.625Z,99653.19
2022-10-23T20:04:25.258Z,99644.41
2022-10-23T20:06:52.703Z,99616.97
2022-10-23T20:09:21.557Z,99586.16
2022-10-23T20:11:49.509Z,99523.81
2022-10-23T20:14:17.338Z,99559.34
2022-10-23T20:16:45.964Z,99493.31
2022-10-23T20:19:14.501Z,99562.84
2022-10-23T20:21:43.584Z,99584.09
2022-10-23T20:24:11.194Z,99575.19
2022-10-23T20:26:41.430Z,99591.16
2022-10-23T20:29:08.859Z,99577.97
2022-10-23T20:31:36.729Z,99577.97
2022-10-23T20:34:04.226Z,99578.78
2022-10-23T20:36:32.513Z,99511.09
2022-10-23T20:39:00.561Z,99528.94
2022-10-23T20:41:28.890Z,99598.38
2022-10-23T20:43:57.662Z,99594.03
2022-10-23T20:46:25.117Z,99608.13
2022-10-23T20:48:52.798Z,99539.56
2022-10-23T20:51:21.090Z,99617.94
2022-10-23T20:53:48.663Z,99624.09
2022-10-23T20:56:17.186Z,99627.59
2022-10-23T20:58:44.613Z,99557.13
2022-10-23T21:01:14.634Z,99625.81
2022-10-23T21:03:41.963Z,99624.19
2022-10-23T21:06:10.277Z,99626.03
2022-10-23T21:08:37.775Z,99638.22
2022-10-23T21:11:05.357Z,99563.78
2022-10-23T21:13:32.814Z,99651.50
2022-10-23T21:16:00.266Z,99647.06
2022-10-23T21:18:45.101Z,99647.88
2022-10-23T21:21:13.993Z,99638.22
2022-10-23T21:23:41.480Z,99631.94
2022-10-23T21:26:09.022Z,99637.38
2022-10-23T21:28:36.598Z,99641.84
2022-10-23T21:31:04.529Z,99603.53
2022-10-23T21:33:33.424Z,99634.72
2022-10-23T21:36:11.826Z,99632.91
2022-10-23T21:38:41.240Z,99630.25
2022-10-23T21:41:08.873Z,99631.94
2022-10-23T21:43:36.377Z,99618.75
2022-10-23T21:46:04.629Z,99617.81
2022-10-23T21:48:33.390Z,99600.00
2022-10-23T21:51:00.936Z,99510.19
2022-10-23T21:53:28.585Z,99553.38
2022-10-23T21:55:56.213Z,99589.47
2022-10-23T21:58:23.674Z,99621.63
2022-10-23T22:00:51.133Z,99632.91
2022-10-23T22:03:18.573Z,99632.28
2022-10-23T22:05:47.607Z,99642.69
2022-10-23T22:08:15.059Z,99638.22
2022-10-23T22:10:42.492Z,99645.34
2022-10-23T22:13:10.086Z,99650.66
2022-10-23T22:15:37.548Z,99661.28
2022-10-23T22:18:05.056Z,99664.81
2022-10-23T22:20:32.473Z,99667.47
2022-10-23T22:23:01.327Z,99637.50
2022-10-23T22:25:28.797Z,99671.91
2022-10-23T22:27:56.289Z,99630.50
2022-10-23T22:30:23.720Z,99676.41
2022-10-23T22:32:51.209Z,99674.69
2022-10-23T22:35:18.652Z,99673.75
2022-10-23T22:37:46.113Z,99672.03
2022-10-23T22:40:15.188Z,99673.75
2022-10-23T22:42:42.902Z,99674.69
2022-10-23T22:45:11.022Z,99679.06
2022-10-23T22:47:38.490Z,99672.03
2022-10-23T22:50:06.976Z,99667.56
2022-10-23T22:52:34.445Z,99669.38
2022-10-23T22:55:01.893Z,99675.53
2022-10-23T22:57:31.483Z,99669.38
2022-10-23T22:59:58.941Z,99677.34
2022-10-23T23:02:26.404Z,99676.41
2022-10-23T23:04:53.880Z,99683.50
2022-10-23T23:07:21.376Z,99643.25
2022-10-23T23:09:48.956Z,99658.72
2022-10-23T23:12:16.435Z,99652.47
2022-10-23T23:14:45.215Z,99653.41
2022-10-23T23:17:12.728Z,99655.16
2022-10-23T23:19:40.202Z,99655.97
2022-10-23T23:22:07.693Z,99655.16
2022-10-23T23:24:35.191Z,99667.69
2022-10-23T23:27:02.674Z,99667.69
2022-10-23T23:29:30.137Z,99626.88
2022-10-23T23:31:58.946Z,99644.72
2022-10-23T23:34:26.517Z,99636.34
2022-10-23T23:36:53.999Z,99654.50
2022-10-23T23:39:21.440Z,99660.69
2022-10-23T23:41:48.892Z,99649.06
2022-10-23T23:44:16.341Z,99649.06
2022-10-23T23:46:43.805Z,99639.53
2022-10-23T23:49:12.595Z,99643.75
2022-10-23T23:51:40.110Z,99650.88
2022-10-23T23:54:07.537Z,99649.06
2022-10-23T23:56:34.984Z,99650.75
2022-10-23T23:59:02.425Z,99656.94
